Time;durP1;ratioP1;P1;durP2;ratioP2;P2;SDS_P1;SDS_P2;PMS_P1;PMS_P2;Temp;Humidity;BMP_temperature;BMP_pressure;BME280_temperature;BME280_humidity;BME280_pressure;Samples;Min_cycle;Max_cycle;Signal;HPM_P1;HPM_P2
2021/10/04 00:02:11;;;;;;;12.20;8.30;;;18.70;99.90;;;;;;5034672;28;20549;-42
2021/10/04 00:04:38;;;;;;;17.80;7.67;;;18.70;99.90;;;;;;5046276;23;20415;-44
2021/10/04 00:07:05;;;;;;;11.77;7.63;;;18.70;99.90;;;;;;5055327;28;20883;-44
2021/10/04 00:09:32;;;;;;;13.27;7.83;;;18.70;99.90;;;;;;5064529;22;20541;-44
2021/10/04 00:11:59;;;;;;;11.13;7.73;;;18.60;99.90;;;;;;5073879;28;20507;-46
2021/10/04 00:14:26;;;;;;;11.90;7.10;;;18.60;99.90;;;;;;5075364;28;20504;-43
2021/10/04 00:16:54;;;;;;;9.77;7.37;;;18.60;99.90;;;;;;5117803;22;20534;-43
2021/10/04 00:19:22;;;;;;;12.70;8.70;;;18.60;99.90;;;;;;5115911;28;20456;-46
2021/10/04 00:21:49;;;;;;;9.50;7.10;;;18.60;99.90;;;;;;5089429;22;20559;-45
2021/10/04 00:24:16;;;;;;;9.73;6.57;;;18.60;99.90;;;;;;5075336;28;20438;-45
2021/10/04 00:26:42;;;;;;;11.43;7.60;;;18.60;99.90;;;;;;5055783;22;20507;-44
2021/10/04 00:29:09;;;;;;;9.37;6.70;;;18.60;99.90;;;;;;5035116;28;20464;-48
2021/10/04 00:31:36;;;;;;;10.33;7.13;;;18.60;99.90;;;;;;5053475;22;20499;-43
2021/10/04 00:34:04;;;;;;;11.97;6.80;;;18.60;99.90;;;;;;5056762;28;20455;-43
2021/10/04 00:36:32;;;;;;;11.00;7.27;;;18.60;99.90;;;;;;5072973;22;20850;-42
2021/10/04 00:38:58;;;;;;;11.53;6.60;;;18.60;99.90;;;;;;5075918;28;20512;-44
2021/10/04 00:41:25;;;;;;;8.90;7.27;;;18.60;99.90;;;;;;5070100;22;20518;-46
2021/10/04 00:43:52;;;;;;;12.60;8.10;;;18.50;99.90;;;;;;5035264;28;20460;-44
2021/10/04 00:46:19;;;;;;;12.67;8.10;;;18.50;99.90;;;;;;5050880;23;20555;-44
2021/10/04 00:48:46;;;;;;;10.70;7.43;;;18.50;99.90;;;;;;5075472;28;20527;-45
2021/10/04 00:51:12;;;;;;;8.97;5.70;;;18.50;99.90;;;;;;5083015;22;20581;-46
2021/10/04 00:53:40;;;;;;;10.17;6.47;;;18.50;99.90;;;;;;5061794;22;20550;-44
2021/10/04 00:56:07;;;;;;;9.47;7.33;;;18.50;99.90;;;;;;5035103;28;20558;-41
2021/10/04 00:58:34;;;;;;;8.30;6.17;;;18.50;99.90;;;;;;5053922;22;20479;-46
2021/10/04 01:01:02;;;;;;;11.10;7.10;;;18.50;99.90;;;;;;5055434;28;20540;-46
2021/10/04 01:03:29;;;;;;;9.00;6.53;;;18.50;99.90;;;;;;5075136;22;20539;-46
2021/10/04 01:05:55;;;;;;;10.17;6.80;;;18.50;99.90;;;;;;5078788;28;20817;-44
2021/10/04 01:08:22;;;;;;;9.00;6.13;;;18.50;99.90;;;;;;5073004;22;20549;-45
2021/10/04 01:10:50;;;;;;;10.13;6.43;;;18.50;99.90;;;;;;5038544;28;20912;-43
2021/10/04 01:13:17;;;;;;;8.83;5.87;;;18.50;99.90;;;;;;5050285;22;20544;-43
2021/10/04 01:15:44;;;;;;;11.00;6.00;;;18.50;99.90;;;;;;5058470;28;20491;-43
2021/10/04 01:18:11;;;;;;;12.10;6.80;;;18.50;99.90;;;;;;5068559;22;20463;-46
2021/10/04 01:20:39;;;;;;;7.97;5.93;;;18.50;99.90;;;;;;5079340;28;20838;-45
2021/10/04 01:25:42;;;;;;;9.27;6.10;;;18.40;99.90;;;;;;5047010;22;20491;-47
2021/10/04 01:28:09;;;;;;;10.10;5.00;;;18.40;99.90;;;;;;5039509;28;20534;-43
2021/10/04 01:30:36;;;;;;;7.10;5.27;;;18.40;99.90;;;;;;5064261;23;20509;-42
2021/10/04 01:33:02;;;;;;;7.43;5.73;;;18.40;99.90;;;;;;5058659;28;20509;-43
2021/10/04 01:35:29;;;;;;;8.90;6.23;;;18.30;99.90;;;;;;5080981;22;20565;-46
2021/10/04 01:38:01;;;;;;;8.53;5.93;;;18.30;99.90;;;;;;5078618;28;20442;-46
2021/10/04 01:40:28;;;;;;;9.90;5.77;;;18.30;99.90;;;;;;5059372;22;20488;-47
2021/10/04 01:42:54;;;;;;;6.00;4.20;;;18.30;99.90;;;;;;5038318;28;20436;-43
2021/10/04 01:45:24;;;;;;;8.67;5.43;;;18.20;99.90;;;;;;5056433;23;20491;-45
2021/10/04 01:47:58;;;;;;;5.47;4.27;;;18.20;99.90;;;;;;5058214;28;20532;-46
2021/10/04 01:50:25;;;;;;;4.97;3.77;;;18.20;99.90;;;;;;5075396;22;20497;-47
2021/10/04 01:52:52;;;;;;;5.50;4.20;;;18.20;99.90;;;;;;5077958;28;20523;-48
2021/10/04 01:55:20;;;;;;;4.67;3.40;;;18.20;99.90;;;;;;5070876;22;20878;-43
2021/10/04 01:57:47;;;;;;;3.93;2.87;;;18.10;99.90;;;;;;5038251;28;20488;-43
2021/10/04 02:00:17;;;;;;;5.00;2.77;;;18.10;99.90;;;;;;5050503;22;20502;-43
2021/10/04 02:02:47;;;;;;;3.60;2.83;;;18.00;99.90;;;;;;5057824;28;20501;-42
2021/10/04 02:05:16;;;;;;;3.07;2.70;;;17.90;99.90;;;;;;5070012;22;20470;-44
2021/10/04 02:07:43;;;;;;;5.27;2.70;;;17.90;99.90;;;;;;5079099;28;20858;-45
2021/10/04 02:10:16;;;;;;;3.50;2.30;;;17.90;99.90;;;;;;5083085;22;20442;-40
2021/10/04 02:12:45;;;;;;;3.10;2.53;;;17.90;99.90;;;;;;5037977;28;20488;-42
2021/10/04 02:15:12;;;;;;;2.73;2.33;;;17.90;99.90;;;;;;5047661;23;20460;-45
2021/10/04 02:17:40;;;;;;;2.10;1.67;;;17.90;99.90;;;;;;5057749;28;20482;-52
2021/10/04 02:20:09;;;;;;;2.00;1.80;;;17.90;99.90;;;;;;5057895;28;20510;-44
2021/10/04 02:22:35;;;;;;;2.23;1.97;;;17.80;99.90;;;;;;5082211;22;20470;-42
2021/10/04 02:25:02;;;;;;;2.80;1.90;;;17.80;99.90;;;;;;5077608;28;20532;-45
2021/10/04 02:27:29;;;;;;;3.77;2.00;;;17.70;99.90;;;;;;5053440;22;20495;-42
2021/10/04 02:29:57;;;;;;;3.40;1.87;;;17.70;99.90;;;;;;5037767;28;20514;-45
2021/10/04 02:32:23;;;;;;;2.90;2.13;;;17.70;99.90;;;;;;5059136;23;20902;-42
2021/10/04 02:34:50;;;;;;;2.87;1.90;;;17.70;99.90;;;;;;5059201;28;20454;-44
2021/10/04 02:37:17;;;;;;;3.27;2.00;;;17.70;99.90;;;;;;5078751;22;20558;-48
2021/10/04 02:39:43;;;;;;;2.80;2.23;;;17.60;99.90;;;;;;5037329;28;20471;-48
2021/10/04 02:42:10;;;;;;;3.50;2.50;;;17.60;99.90;;;;;;5046105;23;20452;-45
2021/10/04 02:44:37;;;;;;;3.10;2.60;;;17.60;99.90;;;;;;5055964;28;20969;-42
2021/10/04 02:47:05;;;;;;;5.90;2.07;;;17.60;99.90;;;;;;5056451;28;20463;-42
2021/10/04 02:49:31;;;;;;;3.57;2.53;;;17.60;99.90;;;;;;5081619;22;20478;-42
2021/10/04 02:52:02;;;;;;;3.33;2.50;;;17.50;99.90;;;;;;5077007;28;20509;-44
2021/10/04 02:54:29;;;;;;;3.67;1.60;;;17.40;99.90;;;;;;5051787;22;20488;-45
2021/10/04 02:56:55;;;;;;;2.47;2.00;;;17.40;99.90;;;;;;5036547;28;20480;-42
2021/10/04 02:59:22;;;;;;;2.57;2.23;;;17.40;99.90;;;;;;5071674;23;20490;-44
2021/10/04 03:01:48;;;;;;;2.80;1.83;;;17.30;99.90;;;;;;5076363;28;20426;-43
2021/10/04 03:04:17;;;;;;;2.70;2.20;;;17.30;99.90;;;;;;5061696;22;20484;-45
2021/10/04 03:06:44;;;;;;;2.10;1.80;;;17.30;99.90;;;;;;5036384;28;20480;-43
2021/10/04 03:09:10;;;;;;;3.07;2.40;;;17.30;99.90;;;;;;5062387;22;20494;-45
2021/10/04 03:11:37;;;;;;;3.13;1.87;;;17.30;99.90;;;;;;5076221;28;20826;-44
2021/10/04 03:14:04;;;;;;;3.20;1.90;;;17.30;99.90;;;;;;5076698;28;20512;-42
2021/10/04 03:16:31;;;;;;;4.50;2.00;;;17.30;99.90;;;;;;5083239;22;20482;-46
2021/10/04 03:19:01;;;;;;;3.60;1.80;;;17.30;99.90;;;;;;5076198;28;20504;-40
2021/10/04 03:21:29;;;;;;;2.57;1.57;;;17.30;99.90;;;;;;5066540;22;20557;-45
2021/10/04 03:23:56;;;;;;;1.87;1.67;;;17.10;99.90;;;;;;5035757;28;20452;-43
2021/10/04 03:26:22;;;;;;;5.00;1.90;;;17.10;99.90;;;;;;5058240;22;20520;-45
2021/10/04 03:28:49;;;;;;;1.53;1.30;;;17.10;99.90;;;;;;5056334;28;20512;-40
2021/10/04 03:31:19;;;;;;;2.80;1.20;;;17.10;99.90;;;;;;5075722;22;20555;-42
2021/10/04 03:33:46;;;;;;;1.97;1.57;;;17.10;99.90;;;;;;5076631;28;20915;-43
2021/10/04 03:36:13;;;;;;;2.80;1.57;;;17.10;99.90;;;;;;5064532;22;20558;-45
2021/10/04 03:38:41;;;;;;;2.10;1.40;;;17.10;99.90;;;;;;5036028;28;20456;-43
2021/10/04 03:41:08;;;;;;;1.80;1.40;;;17.10;99.90;;;;;;5051404;22;20479;-40
2021/10/04 03:43:34;;;;;;;5.00;1.60;;;17.10;99.90;;;;;;5056661;28;20447;-38
2021/10/04 03:46:01;;;;;;;1.87;1.10;;;17.00;99.90;;;;;;5068658;22;20849;-40
2021/10/04 03:48:28;;;;;;;1.93;1.47;;;17.00;99.90;;;;;;5076677;28;20810;-43
2021/10/04 03:50:56;;;;;;;1.50;1.20;;;17.00;99.90;;;;;;5079739;22;20460;-43
2021/10/04 03:53:25;;;;;;;1.60;1.20;;;16.90;99.90;;;;;;5036678;28;20492;-47
2021/10/04 03:55:53;;;;;;;1.50;1.10;;;16.80;99.90;;;;;;5045300;23;20443;-41
2021/10/04 03:58:19;;;;;;;1.30;1.00;;;16.80;99.90;;;;;;5055114;28;20556;-47
2021/10/04 04:00:46;;;;;;;1.27;1.00;;;16.80;99.90;;;;;;5056061;28;20478;-45
2021/10/04 04:03:13;;;;;;;1.73;1.23;;;16.70;99.90;;;;;;5080738;22;20482;-44
2021/10/04 04:05:40;;;;;;;2.33;1.30;;;16.70;99.90;;;;;;5076003;28;20474;-44
2021/10/04 04:08:07;;;;;;;1.47;1.10;;;16.60;99.90;;;;;;5054119;22;20561;-45
2021/10/04 04:10:34;;;;;;;1.30;0.90;;;16.60;99.90;;;;;;5036171;28;20448;-45
2021/10/04 04:13:03;;;;;;;3.40;1.03;;;16.60;99.90;;;;;;5056286;23;20917;-47
2021/10/04 04:15:29;;;;;;;1.30;1.07;;;16.50;99.90;;;;;;5056766;28;20858;-45
2021/10/04 04:17:56;;;;;;;1.70;1.17;;;16.50;99.90;;;;;;5074338;22;20498;-44
2021/10/04 04:20:23;;;;;;;1.10;0.80;;;16.50;99.90;;;;;;5076901;28;20489;-40
2021/10/04 04:22:50;;;;;;;1.27;0.97;;;16.40;99.90;;;;;;5068000;22;20494;-44
2021/10/04 04:25:17;;;;;;;1.10;0.90;;;16.40;99.90;;;;;;5035638;28;20525;-43
2021/10/04 04:27:44;;;;;;;1.13;0.70;;;16.40;99.90;;;;;;5048767;23;20529;-43
2021/10/04 04:30:14;;;;;;;0.90;0.60;;;16.30;99.90;;;;;;5055523;28;20479;-45
2021/10/04 04:32:42;;;;;;;2.13;0.90;;;16.30;99.90;;;;;;5066877;22;20478;-48
2021/10/04 04:35:10;;;;;;;1.33;0.90;;;16.30;99.90;;;;;;5075638;28;20446;-47
2021/10/04 04:37:39;;;;;;;1.10;0.80;;;16.20;99.90;;;;;;5085475;22;20490;-45
2021/10/04 04:40:08;;;;;;;1.03;0.83;;;16.20;99.90;;;;;;5080003;28;20446;-43
2021/10/04 04:45:01;;;;;;;1.50;0.70;;;16.10;99.90;;;;;;5045256;22;20479;-42
2021/10/04 04:47:29;;;;;;;1.63;0.93;;;16.10;99.90;;;;;;5039900;28;20452;-42
2021/10/04 04:49:56;;;;;;;1.00;0.80;;;16.00;99.90;;;;;;5082151;22;20551;-44
2021/10/04 04:52:23;;;;;;;1.20;0.60;;;16.00;99.90;;;;;;5080712;28;20591;-49
2021/10/04 04:54:49;;;;;;;2.80;1.13;;;16.00;99.90;;;;;;5077088;22;20542;-42
2021/10/04 04:57:16;;;;;;;1.20;0.70;;;16.10;99.90;;;;;;5039846;28;20541;-43
2021/10/04 04:59:43;;;;;;;1.00;0.80;;;16.10;99.90;;;;;;5052041;23;20494;-44
2021/10/04 05:02:09;;;;;;;1.00;0.80;;;16.10;99.90;;;;;;5060777;28;20427;-46
2021/10/04 05:04:37;;;;;;;1.53;1.10;;;16.10;99.90;;;;;;5069449;22;20816;-44
2021/10/04 05:07:05;;;;;;;1.20;0.80;;;16.10;99.90;;;;;;5081066;28;20496;-47
2021/10/04 05:11:58;;;;;;;1.97;0.90;;;16.10;99.90;;;;;;5046936;22;20495;-53
2021/10/04 05:14:25;;;;;;;1.30;0.90;;;16.00;99.90;;;;;;5040610;28;20470;-43
2021/10/04 05:16:52;;;;;;;2.13;1.20;;;16.00;99.90;;;;;;5063828;23;20490;-42
2021/10/04 05:19:19;;;;;;;1.83;1.30;;;16.00;99.90;;;;;;5059233;28;20513;-43
2021/10/04 05:21:47;;;;;;;1.23;0.80;;;16.00;99.90;;;;;;5081583;22;20489;-43
2021/10/04 05:24:13;;;;;;;1.00;0.70;;;16.00;99.90;;;;;;5078958;28;20450;-44
2021/10/04 05:26:40;;;;;;;1.00;0.80;;;16.00;99.90;;;;;;5061053;22;21046;-42
2021/10/04 05:29:07;;;;;;;4.03;0.93;;;16.10;99.90;;;;;;5039183;28;20455;-44
2021/10/04 05:31:33;;;;;;;1.07;0.80;;;16.00;99.90;;;;;;5054908;22;20491;-45
2021/10/04 05:34:02;;;;;;;1.67;1.00;;;16.00;99.90;;;;;;5058973;28;20451;-43
2021/10/04 05:38:57;;;;;;;1.30;0.90;;;16.00;99.90;;;;;;5044137;22;20488;-44
2021/10/04 05:41:24;;;;;;;1.77;1.07;;;16.00;99.90;;;;;;5039163;28;20491;-45
2021/10/04 05:43:51;;;;;;;1.73;1.00;;;16.10;99.90;;;;;;5063608;23;20487;-46
2021/10/04 05:46:18;;;;;;;1.10;0.90;;;16.00;99.90;;;;;;5058816;28;20835;-48
2021/10/04 05:48:44;;;;;;;1.37;0.90;;;16.00;99.90;;;;;;5081477;22;20576;-43
2021/10/04 05:51:11;;;;;;;3.10;2.40;;;16.00;99.90;;;;;;5079195;28;20492;-45
2021/10/04 05:53:38;;;;;;;1.30;1.20;;;16.00;99.90;;;;;;5060690;22;20496;-44
2021/10/04 05:56:06;;;;;;;1.30;0.97;;;16.00;99.90;;;;;;5038784;28;20495;-43
2021/10/04 05:58:32;;;;;;;1.70;1.03;;;16.00;99.90;;;;;;5056475;23;20486;-44
2021/10/04 06:00:59;;;;;;;1.20;0.90;;;16.00;99.90;;;;;;5058094;28;20878;-43
2021/10/04 06:03:26;;;;;;;1.07;0.97;;;16.10;99.90;;;;;;5074305;22;20555;-45
2021/10/04 06:05:53;;;;;;;1.40;0.77;;;16.10;99.90;;;;;;5078569;28;20450;-43
2021/10/04 06:08:19;;;;;;;1.20;0.90;;;16.10;99.90;;;;;;5075142;22;20830;-42
2021/10/04 06:10:46;;;;;;;1.40;1.00;;;16.10;99.90;;;;;;5036971;28;20449;-41
2021/10/04 06:13:14;;;;;;;2.13;0.93;;;16.10;99.90;;;;;;5040629;23;20487;-47
2021/10/04 06:15:41;;;;;;;2.07;0.90;;;16.10;99.90;;;;;;5077476;28;20463;-46
2021/10/04 06:18:11;;;;;;;1.80;1.00;;;16.10;99.90;;;;;;5084938;22;20486;-42
2021/10/04 06:20:38;;;;;;;1.47;0.93;;;16.10;99.90;;;;;;5025146;28;20487;-45
2021/10/04 06:23:05;;;;;;;4.07;1.00;;;16.20;99.90;;;;;;5036584;28;20966;-47
2021/10/04 06:25:32;;;;;;;1.63;0.90;;;16.20;99.90;;;;;;5111775;23;20469;-41
2021/10/04 06:27:59;;;;;;;1.37;0.80;;;16.20;99.90;;;;;;5098694;28;20442;-42
2021/10/04 06:30:27;;;;;;;1.73;0.80;;;16.20;99.90;;;;;;5084416;22;20479;-45
2021/10/04 06:32:54;;;;;;;1.50;1.20;;;16.20;99.90;;;;;;5065671;28;20431;-47
2021/10/04 06:35:21;;;;;;;6.03;1.30;;;16.30;99.90;;;;;;5068873;23;20504;-49
2021/10/04 06:37:48;;;;;;;1.53;1.27;;;16.30;99.90;;;;;;5047826;28;20530;-43
2021/10/04 06:40:16;;;;;;;1.43;1.13;;;16.30;99.90;;;;;;5077961;23;20550;-46
2021/10/04 06:42:43;;;;;;;1.67;1.20;;;16.30;99.90;;;;;;5096144;28;20474;-44
2021/10/04 06:45:10;;;;;;;1.40;1.03;;;16.40;99.90;;;;;;5095697;22;20552;-42
2021/10/04 06:47:38;;;;;;;1.20;0.80;;;16.30;99.90;;;;;;5055579;28;20951;-41
2021/10/04 06:50:06;;;;;;;1.60;0.93;;;16.30;99.90;;;;;;5056815;28;20450;-43
2021/10/04 06:52:32;;;;;;;1.60;1.00;;;16.30;99.90;;;;;;5084068;22;20490;-42
2021/10/04 06:54:59;;;;;;;2.80;1.10;;;16.30;99.90;;;;;;5091540;28;20454;-41
2021/10/04 06:57:26;;;;;;;1.90;1.20;;;16.30;99.90;;;;;;5102960;22;20463;-39
2021/10/04 06:59:53;;;;;;;1.90;1.03;;;16.40;99.90;;;;;;5074055;28;20459;-42
2021/10/04 07:02:24;;;;;;;1.50;0.90;;;16.40;99.90;;;;;;5096582;22;20481;-42
2021/10/04 07:04:53;;;;;;;3.33;1.10;;;16.40;99.90;;;;;;5096908;28;20602;-42
2021/10/04 07:07:20;;;;;;;1.40;1.27;;;16.30;99.90;;;;;;5092785;22;20466;-42
2021/10/04 07:09:47;;;;;;;1.67;1.00;;;16.30;99.90;;;;;;5076665;28;20439;-44
2021/10/04 07:12:13;;;;;;;1.70;1.50;;;16.40;99.90;;;;;;5114629;22;20548;-41
2021/10/04 07:14:40;;;;;;;1.83;1.60;;;16.40;99.90;;;;;;5076006;28;20508;-39
2021/10/04 07:17:07;;;;;;;1.60;1.20;;;16.40;99.90;;;;;;5071032;28;20525;-44
2021/10/04 07:19:33;;;;;;;2.80;1.40;;;16.40;99.90;;;;;;5051662;28;20842;-42
2021/10/04 07:22:02;;;;;;;1.30;0.97;;;16.40;99.90;;;;;;5038762;28;20535;-40
2021/10/04 07:24:28;;;;;;;1.53;0.97;;;16.40;99.90;;;;;;5038188;28;20510;-42
2021/10/04 07:26:55;;;;;;;1.00;0.80;;;16.40;99.90;;;;;;5036923;28;20515;-42
2021/10/04 07:29:22;;;;;;;2.27;0.80;;;16.50;99.90;;;;;;5047568;28;20463;-40
2021/10/04 07:31:49;;;;;;;1.40;1.20;;;16.40;99.90;;;;;;5053004;28;20443;-42
2021/10/04 07:34:16;;;;;;;1.40;0.87;;;16.40;99.90;;;;;;5044977;28;20513;-42
2021/10/04 07:36:43;;;;;;;1.03;0.87;;;16.40;99.90;;;;;;5046816;28;20435;-42
2021/10/04 07:39:12;;;;;;;1.10;0.83;;;16.30;99.90;;;;;;5049066;28;20472;-39
2021/10/04 07:41:39;;;;;;;3.43;1.30;;;16.30;99.90;;;;;;5056203;28;20451;-44
2021/10/04 07:44:06;;;;;;;1.43;1.10;;;16.30;99.90;;;;;;5046821;28;20458;-47
2021/10/04 07:46:32;;;;;;;1.23;1.00;;;16.40;99.90;;;;;;5046310;28;20464;-40
2021/10/04 07:48:59;;;;;;;5.60;1.27;;;16.30;99.90;;;;;;5046160;28;20752;-41
2021/10/04 07:51:26;;;;;;;2.03;1.20;;;16.30;99.90;;;;;;5046619;28;20537;-39
2021/10/04 07:53:52;;;;;;;2.23;1.50;;;16.30;99.90;;;;;;5045683;28;20820;-42
2021/10/04 07:56:21;;;;;;;3.30;1.30;;;16.20;99.90;;;;;;5036242;28;20498;-39
2021/10/04 07:58:48;;;;;;;1.30;1.00;;;16.30;99.90;;;;;;5036758;28;20487;-45
2021/10/04 08:01:15;;;;;;;1.37;1.00;;;16.30;99.90;;;;;;5036395;28;20822;-39
2021/10/04 08:03:42;;;;;;;1.90;1.30;;;16.30;99.90;;;;;;5035796;28;20472;-41
2021/10/04 08:06:09;;;;;;;2.20;1.20;;;16.40;99.90;;;;;;5036454;28;20448;-41
2021/10/04 08:08:35;;;;;;;1.63;1.00;;;16.40;99.90;;;;;;5036077;28;20463;-40
2021/10/04 08:11:02;;;;;;;1.73;1.30;;;16.60;99.90;;;;;;5035781;28;20494;-38
2021/10/04 08:13:31;;;;;;;1.27;1.03;;;16.70;99.90;;;;;;5035904;28;20463;-41
2021/10/04 08:16:00;;;;;;;2.50;1.40;;;16.80;99.90;;;;;;5036429;28;20463;-40
2021/10/04 08:18:26;;;;;;;1.30;1.10;;;16.90;99.90;;;;;;5037341;28;20483;-57
2021/10/04 08:20:53;;;;;;;2.13;1.43;;;17.00;99.90;;;;;;5037160;28;20794;-47
2021/10/04 08:23:20;;;;;;;1.80;1.60;;;17.00;99.90;;;;;;5035222;28;20472;-51
2021/10/04 08:25:47;;;;;;;1.87;1.40;;;17.10;99.90;;;;;;5035543;28;20437;-54
2021/10/04 08:28:14;;;;;;;1.60;1.37;;;17.10;99.90;;;;;;5035400;28;20578;-52
2021/10/04 08:30:42;;;;;;;2.17;1.40;;;17.00;99.90;;;;;;5053182;23;20518;-50
2021/10/04 08:33:09;;;;;;;1.50;1.30;;;17.00;99.90;;;;;;5075784;28;20502;-53
2021/10/04 08:35:35;;;;;;;2.90;1.23;;;17.00;99.90;;;;;;5075352;28;20451;-51
2021/10/04 08:38:02;;;;;;;4.47;1.90;;;17.00;99.90;;;;;;5075306;28;20551;-49
2021/10/04 08:40:29;;;;;;;1.90;1.40;;;17.00;99.90;;;;;;5075598;28;20439;-47
2021/10/04 08:42:56;;;;;;;2.40;1.50;;;16.90;99.90;;;;;;5075698;28;21006;-54
2021/10/04 08:45:26;;;;;;;1.83;1.00;;;16.90;99.90;;;;;;5075842;28;20491;-52
2021/10/04 08:47:58;;;;;;;2.40;1.77;;;16.90;99.90;;;;;;5074903;28;20442;-48
2021/10/04 08:50:27;;;;;;;2.97;1.83;;;16.80;99.90;;;;;;5075443;28;20569;-55
2021/10/04 08:52:54;;;;;;;2.57;2.00;;;16.80;99.90;;;;;;5062579;28;20444;-50
2021/10/04 08:55:21;;;;;;;2.43;1.70;;;16.80;99.90;;;;;;5054901;28;20533;-48
2021/10/04 08:57:48;;;;;;;4.00;1.23;;;16.80;99.90;;;;;;5062949;28;20442;-54
2021/10/04 09:00:16;;;;;;;4.30;2.30;;;16.70;99.90;;;;;;5071019;28;20503;-52
2021/10/04 09:02:43;;;;;;;2.30;1.80;;;16.70;99.90;;;;;;5066663;28;20442;-50
2021/10/04 09:05:18;;;;;;;2.13;0.93;;;16.60;99.90;;;;;;5063340;28;20454;-51
2021/10/04 09:07:46;;;;;;;2.57;1.27;;;16.60;99.90;;;;;;5061177;28;20473;-54
2021/10/04 09:10:16;;;;;;;1.87;1.10;;;16.70;99.90;;;;;;5077990;28;20442;-53
2021/10/04 09:12:46;;;;;;;2.33;1.17;;;16.70;99.90;;;;;;5077133;28;20474;-55
2021/10/04 09:15:31;;;;;;;1.60;1.00;;;16.70;99.90;;;;;;5073284;28;20463;-59
2021/10/04 09:18:00;;;;;;;1.70;0.93;;;16.70;99.90;;;;;;5056840;28;20435;-54
2021/10/04 09:20:57;;;;;;;1.40;1.00;;;16.70;99.90;;;;;;5055334;28;20497;-52
2021/10/04 09:23:32;;;;;;;2.70;1.73;;;16.70;99.90;;;;;;5057421;28;20471;-52
2021/10/04 09:25:58;;;;;;;2.00;1.33;;;16.70;99.90;;;;;;5059064;28;20439;-53
2021/10/04 09:28:30;;;;;;;1.20;0.80;;;16.70;99.90;;;;;;5058150;28;20443;-48
2021/10/04 09:31:16;;;;;;;1.30;0.87;;;16.70;99.90;;;;;;5080274;28;20545;-51
2021/10/04 09:33:58;;;;;;;1.77;1.07;;;16.70;99.90;;;;;;5093663;22;20424;-50
2021/10/04 09:36:29;;;;;;;3.53;1.17;;;16.60;99.90;;;;;;5028651;28;20543;-53
2021/10/04 09:39:13;;;;;;;1.43;1.00;;;16.60;99.90;;;;;;5033770;28;20468;-52
2021/10/04 09:42:04;;;;;;;3.03;1.10;;;16.50;99.90;;;;;;5021294;28;20861;-52
2021/10/04 09:44:43;;;;;;;1.53;1.00;;;16.50;99.90;;;;;;5085099;22;20489;-55
2021/10/04 09:47:11;;;;;;;4.10;1.30;;;16.60;99.90;;;;;;5112819;28;20429;-52
2021/10/04 09:49:51;;;;;;;1.97;1.60;;;16.60;99.90;;;;;;5110857;28;22082;-49
2021/10/04 09:52:19;;;;;;;2.43;1.73;;;16.60;99.90;;;;;;5114760;28;20461;-51
2021/10/04 09:54:47;;;;;;;2.07;1.30;;;16.70;99.90;;;;;;5115006;28;20469;-54
2021/10/04 09:57:18;;;;;;;1.63;1.20;;;16.60;99.90;;;;;;5115095;28;20581;-53
2021/10/04 09:59:46;;;;;;;3.47;1.00;;;16.60;99.90;;;;;;5110778;28;20472;-53
2021/10/04 10:02:14;;;;;;;3.53;1.00;;;16.60;99.90;;;;;;5109227;28;20552;-52
2021/10/04 10:04:41;;;;;;;1.60;1.30;;;16.70;99.90;;;;;;5105517;22;20525;-49
2021/10/04 10:07:08;;;;;;;1.60;1.20;;;16.60;99.90;;;;;;5093721;28;20831;-51
2021/10/04 10:09:37;;;;;;;2.20;1.37;;;16.60;99.90;;;;;;5088706;22;20499;-51
2021/10/04 10:12:05;;;;;;;3.37;1.70;;;16.60;99.90;;;;;;5025934;28;20472;-48
2021/10/04 10:14:40;;;;;;;3.23;1.90;;;16.60;99.90;;;;;;5044878;22;20510;-53
2021/10/04 10:17:11;;;;;;;6.07;1.23;;;16.60;99.90;;;;;;5067373;28;20470;-50
2021/10/04 10:22:11;;;;;;;2.00;1.73;;;16.70;99.90;;;;;;5119615;22;20971;-52
2021/10/04 10:24:50;;;;;;;;;;;;;;;;;;;;;
2021/10/04 10:27:41;;;;;;;5.37;4.10;;;16.90;99.90;;;;;;5078784;22;20490;-54
2021/10/04 10:30:18;;;;;;;1.40;1.20;;;17.00;99.90;;;;;;5074996;22;20463;-54
2021/10/04 10:32:45;;;;;;;1.30;0.93;;;17.00;99.90;;;;;;5047901;28;20455;-53
2021/10/04 10:37:49;;;;;;;2.33;1.30;;;17.10;99.90;;;;;;5028791;22;20481;-50
2021/10/04 10:40:19;;;;;;;7.07;1.00;;;17.10;99.90;;;;;;5033312;28;20490;-52
2021/10/04 10:43:00;;;;;;;3.53;1.47;;;17.00;99.90;;;;;;5115624;22;20484;-48
2021/10/04 10:48:11;;;;;;;4.47;1.60;;;17.00;99.90;;;;;;5088008;22;20507;-50
2021/10/04 10:50:43;;;;;;;2.13;1.20;;;17.00;99.90;;;;;;5123682;22;20528;-49
2021/10/04 10:53:20;;;;;;;1.80;1.27;;;16.90;99.90;;;;;;5095301;28;20478;-50
2021/10/04 10:55:55;;;;;;;1.77;1.20;;;16.90;99.90;;;;;;5107104;22;20501;-51
2021/10/04 10:58:23;;;;;;;4.47;1.40;;;16.90;99.90;;;;;;5088609;28;20530;-53
2021/10/04 11:01:04;;;;;;;2.17;1.60;;;17.00;99.90;;;;;;5088259;28;20430;-51
2021/10/04 11:03:31;;;;;;;5.03;1.73;;;16.90;99.90;;;;;;5085578;28;20436;-53
2021/10/04 11:06:02;;;;;;;1.53;1.00;;;16.90;99.90;;;;;;5091974;28;20454;-48
2021/10/04 11:08:53;;;;;;;1.73;0.90;;;16.90;99.90;;;;;;5104025;22;20484;-51
2021/10/04 11:11:22;;;;;;;3.10;1.83;;;17.00;99.90;;;;;;5088323;28;20430;-55
2021/10/04 11:14:00;;;;;;;2.80;1.50;;;17.00;99.90;;;;;;5099470;28;20448;-50
2021/10/04 11:16:34;;;;;;;4.07;1.30;;;17.00;99.90;;;;;;5100720;28;20550;-48
2021/10/04 11:19:03;;;;;;;2.20;1.30;;;16.90;99.90;;;;;;5078796;28;20559;-53
2021/10/04 11:21:32;;;;;;;4.40;1.20;;;16.90;99.90;;;;;;5095404;28;20921;-54
2021/10/04 11:24:03;;;;;;;3.13;1.53;;;16.90;99.90;;;;;;5095986;28;20510;-54
2021/10/04 11:26:34;;;;;;;1.47;1.33;;;16.90;99.90;;;;;;5096232;28;21063;-52
2021/10/04 11:29:03;;;;;;;1.70;1.40;;;17.00;99.90;;;;;;5097186;28;20469;-54
2021/10/04 11:31:32;;;;;;;2.37;1.10;;;16.90;99.90;;;;;;5097199;28;20454;-49
2021/10/04 11:34:00;;;;;;;2.47;1.30;;;17.00;99.90;;;;;;5097446;28;20441;-52
2021/10/04 11:36:30;;;;;;;4.47;3.23;;;17.10;99.90;;;;;;5097957;28;20491;-53
2021/10/04 11:39:00;;;;;;;2.50;1.43;;;17.10;99.90;;;;;;5098544;28;20542;-53
2021/10/04 11:41:29;;;;;;;4.30;1.53;;;17.20;99.90;;;;;;5096549;28;20934;-51
2021/10/04 11:43:59;;;;;;;3.10;1.40;;;17.20;99.90;;;;;;5096697;28;20430;-50
2021/10/04 11:46:29;;;;;;;1.87;1.30;;;17.30;99.90;;;;;;5095884;28;20457;-52
2021/10/04 11:49:07;;;;;;;3.23;1.40;;;17.30;99.90;;;;;;5096310;28;20465;-51
2021/10/04 11:51:37;;;;;;;3.77;1.70;;;17.30;99.90;;;;;;5096821;28;20429;-53
2021/10/04 11:54:04;;;;;;;3.00;1.70;;;17.30;99.90;;;;;;5096249;28;20465;-52
2021/10/04 11:56:38;;;;;;;2.77;1.57;;;17.40;99.90;;;;;;5096599;28;20433;-52
2021/10/04 11:59:07;;;;;;;3.77;1.40;;;17.40;99.90;;;;;;5097507;22;20490;-51
2021/10/04 12:01:36;;;;;;;2.43;1.40;;;17.40;99.90;;;;;;5056922;28;20735;-57
2021/10/04 12:04:06;;;;;;;4.50;1.63;;;17.40;99.90;;;;;;5056938;28;20450;-51
2021/10/04 12:06:34;;;;;;;3.60;1.40;;;17.30;99.90;;;;;;5056045;28;20443;-50
2021/10/04 12:09:02;;;;;;;1.77;1.50;;;17.20;99.90;;;;;;5055667;28;21042;-54
2021/10/04 12:11:29;;;;;;;1.87;1.50;;;17.20;99.90;;;;;;5055765;28;20642;-54
2021/10/04 12:13:57;;;;;;;4.17;1.50;;;17.20;99.90;;;;;;5056188;28;20613;-55
2021/10/04 12:16:33;;;;;;;2.23;1.50;;;17.10;99.90;;;;;;5055613;28;20447;-52
2021/10/04 12:19:03;;;;;;;3.30;1.70;;;17.10;99.90;;;;;;5055632;28;20503;-54
2021/10/04 12:21:32;;;;;;;2.97;1.43;;;17.10;99.90;;;;;;5055908;28;20443;-46
2021/10/04 12:24:10;;;;;;;2.47;1.00;;;17.00;99.90;;;;;;5055443;28;20530;-47
2021/10/04 12:26:57;;;;;;;2.10;1.20;;;16.90;99.90;;;;;;5062630;22;20491;-54
2021/10/04 12:29:46;;;;;;;8.80;1.40;;;16.90;99.90;;;;;;5058332;28;20455;-47
2021/10/04 12:32:27;;;;;;;3.67;1.67;;;16.70;99.90;;;;;;5055157;28;20516;-57
2021/10/04 12:35:06;;;;;;;5.67;1.67;;;16.80;99.90;;;;;;5059551;28;20729;-50
2021/10/04 12:37:35;;;;;;;1.57;0.90;;;16.80;99.90;;;;;;5096744;22;21000;-50
2021/10/04 12:40:02;;;;;;;1.77;1.40;;;16.80;99.90;;;;;;5074831;28;20496;-51
2021/10/04 12:42:29;;;;;;;2.00;1.47;;;16.70;99.90;;;;;;5074379;28;20457;-55
2021/10/04 12:44:55;;;;;;;1.93;1.47;;;16.70;99.90;;;;;;5077729;28;20507;-53
2021/10/04 12:47:30;;;;;;;3.67;1.30;;;16.60;99.90;;;;;;5075303;28;20426;-57
2021/10/04 12:49:59;;;;;;;6.03;1.40;;;16.50;99.90;;;;;;5074187;28;20863;-55
2021/10/04 12:52:27;;;;;;;2.27;1.20;;;16.60;99.90;;;;;;5074691;28;20802;-58
2021/10/04 12:54:57;;;;;;;1.63;1.20;;;16.50;99.90;;;;;;5074607;28;20454;-56
2021/10/04 12:57:26;;;;;;;1.50;1.27;;;16.50;99.90;;;;;;5075862;28;20442;-55
2021/10/04 12:59:57;;;;;;;3.00;1.60;;;16.50;99.90;;;;;;5078597;28;20532;-57
2021/10/04 13:02:28;;;;;;;5.20;1.50;;;16.60;99.90;;;;;;5078522;28;20529;-50
2021/10/04 13:04:56;;;;;;;2.90;1.60;;;16.50;99.90;;;;;;5078312;28;20796;-55
2021/10/04 13:07:27;;;;;;;5.63;1.80;;;16.60;99.90;;;;;;5074882;22;20488;-51
2021/10/04 13:09:54;;;;;;;2.37;1.20;;;16.50;99.90;;;;;;5037866;28;20877;-56
2021/10/04 13:12:24;;;;;;;3.00;1.60;;;16.50;99.90;;;;;;5037988;28;21094;-57
2021/10/04 13:14:51;;;;;;;2.10;1.60;;;16.40;99.90;;;;;;5038413;28;20444;-54